Time;durP1;ratioP1;P1;durP2;ratioP2;P2;SDS_P1;SDS_P2;PMS_P1;PMS_P2;Temp;Humidity;BMP_temperature;BMP_pressure;BME280_temperature;BME280_humidity;BME280_pressure;Samples;Min_cycle;Max_cycle;Signal;HPM_P1;HPM_P2
2022/06/11 00:00:40;;;;;;;21.23;18.30;;;;;;;;;;5015762;28;20026;-67
2022/06/11 00:03:06;;;;;;;14.85;12.38;;;;;;;;;;5033099;28;20100;-69
2022/06/11 00:05:32;;;;;;;10.15;8.38;;;;;;;;;;5034977;28;20028;-67
2022/06/11 00:07:58;;;;;;;8.85;7.93;;;;;;;;;;5035246;28;20103;-68
2022/06/11 00:10:27;;;;;;;11.32;10.13;;;;;;;;;;5035037;28;20468;-68
2022/06/11 00:12:53;;;;;;;9.05;7.85;;;;;;;;;;5035183;28;20021;-67
2022/06/11 00:15:19;;;;;;;10.52;7.50;;;;;;;;;;5035113;28;20021;-68
2022/06/11 00:17:45;;;;;;;9.85;7.47;;;;;;;;;;5034947;28;20399;-68
2022/06/11 00:20:12;;;;;;;9.23;8.25;;;;;;;;;;5034840;28;20145;-68
2022/06/11 00:22:39;;;;;;;12.50;8.82;;;;;;;;;;5033958;28;20025;-67
2022/06/11 00:25:05;;;;;;;8.70;7.15;;;;;;;;;;5034506;28;20053;-67
2022/06/11 00:27:31;;;;;;;11.60;7.70;;;;;;;;;;5034844;28;20026;-68
2022/06/11 00:29:58;;;;;;;25.75;16.27;;;;;;;;;;5034685;28;20028;-68
2022/06/11 00:32:24;;;;;;;52.00;32.20;;;;;;;;;;5034863;28;20033;-68
2022/06/11 00:34:50;;;;;;;34.85;21.80;;;;;;;;;;5034510;28;20033;-68
2022/06/11 00:37:17;;;;;;;16.08;11.15;;;;;;;;;;5034286;28;20037;-68
2022/06/11 00:39:49;;;;;;;13.32;10.68;;;;;;;;;;5036255;28;20030;-67
2022/06/11 00:42:18;;;;;;;14.02;10.25;;;;;;;;;;5039361;28;20056;-67
2022/06/11 00:44:45;;;;;;;34.03;21.58;;;;;;;;;;5034457;28;20471;-69
2022/06/11 00:47:20;;;;;;;18.23;11.75;;;;;;;;;;5034095;28;20053;-67
2022/06/11 00:49:47;;;;;;;19.38;13.52;;;;;;;;;;5033863;28;20399;-68
2022/06/11 00:52:27;;;;;;;25.30;15.00;;;;;;;;;;5034015;28;20030;-67
2022/06/11 00:55:00;;;;;;;20.55;12.15;;;;;;;;;;5033974;28;20026;-67
2022/06/11 00:57:29;;;;;;;15.75;9.45;;;;;;;;;;5033979;28;20025;-67
2022/06/11 00:59:57;;;;;;;11.68;8.55;;;;;;;;;;5033851;28;20017;-68
2022/06/11 01:02:23;;;;;;;20.70;12.48;;;;;;;;;;5033443;28;20026;-67
2022/06/11 01:04:58;;;;;;;15.15;8.98;;;;;;;;;;5033546;28;20511;-67
2022/06/11 01:07:29;;;;;;;16.15;11.35;;;;;;;;;;5034024;28;20384;-67
2022/06/11 01:09:55;;;;;;;9.63;7.97;;;;;;;;;;5033498;28;20078;-67
2022/06/11 01:12:22;;;;;;;9.85;7.50;;;;;;;;;;5033739;28;20037;-68
2022/06/11 01:14:51;;;;;;;9.85;7.80;;;;;;;;;;5033646;28;20026;-68
2022/06/11 01:17:26;;;;;;;10.55;8.73;;;;;;;;;;5033651;28;20468;-67
2022/06/11 01:19:55;;;;;;;10.80;8.70;;;;;;;;;;5033478;28;20028;-67
2022/06/11 01:22:21;;;;;;;13.13;10.52;;;;;;;;;;5033599;28;20030;-67
2022/06/11 01:25:06;;;;;;;10.85;8.02;;;;;;;;;;5033075;28;20056;-66
2022/06/11 01:27:45;;;;;;;11.00;8.43;;;;;;;;;;5033249;28;20022;-67
2022/06/11 01:30:17;;;;;;;12.30;8.52;;;;;;;;;;5033916;28;20025;-67
2022/06/11 01:32:55;;;;;;;10.30;8.25;;;;;;;;;;5032530;28;20034;-67
2022/06/11 01:35:42;;;;;;;11.68;8.05;;;;;;;;;;5033439;28;20040;-67
2022/06/11 01:38:18;;;;;;;10.27;7.53;;;;;;;;;;5033430;28;20541;-67
2022/06/11 01:40:57;;;;;;;11.48;8.43;;;;;;;;;;5033756;28;20111;-67
2022/06/11 01:43:23;;;;;;;9.60;7.63;;;;;;;;;;5033489;28;20026;-67
2022/06/11 01:45:50;;;;;;;22.63;18.75;;;;;;;;;;5018825;28;20026;-67
2022/06/11 01:48:21;;;;;;;35.05;21.65;;;;;;;;;;5024487;28;20029;-67
2022/06/11 01:50:51;;;;;;;19.33;12.00;;;;;;;;;;5019567;28;20038;-66
2022/06/11 01:53:28;;;;;;;13.15;9.18;;;;;;;;;;5013543;28;20475;-65
2022/06/11 01:56:10;;;;;;;10.75;8.13;;;;;;;;;;5013286;28;20121;-65
2022/06/11 01:58:54;;;;;;;13.52;8.35;;;;;;;;;;5013407;28;20040;-67
2022/06/11 02:01:26;;;;;;;11.05;7.45;;;;;;;;;;5013785;28;20048;-66
2022/06/11 02:04:22;;;;;;;10.52;8.52;;;;;;;;;;5020687;28;20040;-65
2022/06/11 02:06:57;;;;;;;9.23;7.47;;;;;;;;;;4990325;28;20554;-67
2022/06/11 02:09:34;;;;;;;10.93;8.15;;;;;;;;;;4990551;28;20045;-66
2022/06/11 02:12:17;;;;;;;11.23;8.35;;;;;;;;;;4990851;28;20050;-66
2022/06/11 02:15:02;;;;;;;8.15;7.35;;;;;;;;;;4991150;28;20026;-65
2022/06/11 02:17:31;;;;;;;9.93;7.22;;;;;;;;;;4991142;28;20034;-65
2022/06/11 02:20:09;;;;;;;9.68;7.38;;;;;;;;;;4990808;28;20186;-66
2022/06/11 02:22:43;;;;;;;10.52;7.47;;;;;;;;;;4991045;28;20030;-66
2022/06/11 02:25:13;;;;;;;9.68;7.70;;;;;;;;;;4990751;28;20054;-67
2022/06/11 02:27:40;;;;;;;8.43;7.53;;;;;;;;;;4991026;28;20038;-66
2022/06/11 02:30:07;;;;;;;8.98;7.65;;;;;;;;;;4990681;28;20109;-67
2022/06/11 02:32:33;;;;;;;8.38;7.45;;;;;;;;;;4990413;28;20122;-66
2022/06/11 02:35:02;;;;;;;9.30;7.40;;;;;;;;;;4990642;28;20464;-66
2022/06/11 02:37:33;;;;;;;8.65;7.20;;;;;;;;;;4990738;28;20058;-66
2022/06/11 02:40:02;;;;;;;8.45;7.55;;;;;;;;;;4990496;28;20050;-64
2022/06/11 02:42:28;;;;;;;8.88;7.97;;;;;;;;;;4996425;28;20048;-66
2022/06/11 02:44:54;;;;;;;8.15;7.35;;;;;;;;;;5020614;28;20025;-66
2022/06/11 02:47:21;;;;;;;7.95;7.13;;;;;;;;;;5012344;28;20137;-66
2022/06/11 02:49:47;;;;;;;11.00;7.68;;;;;;;;;;5012350;28;20041;-66
2022/06/11 02:52:16;;;;;;;9.02;7.32;;;;;;;;;;5012568;28;20030;-66
2022/06/11 02:54:43;;;;;;;9.35;7.75;;;;;;;;;;5012631;28;20029;-65
2022/06/11 02:57:11;;;;;;;9.02;7.30;;;;;;;;;;5012766;28;20030;-67
2022/06/11 02:59:37;;;;;;;8.13;7.22;;;;;;;;;;5012724;28;20384;-66
2022/06/11 03:02:03;;;;;;;9.57;7.63;;;;;;;;;;5020340;28;20108;-65
2022/06/11 03:04:31;;;;;;;8.63;7.72;;;;;;;;;;5032370;28;20438;-66
2022/06/11 03:06:57;;;;;;;10.15;8.05;;;;;;;;;;5032390;28;20036;-66
2022/06/11 03:09:25;;;;;;;11.32;7.63;;;;;;;;;;5032202;28;20021;-66
2022/06/11 03:11:51;;;;;;;8.32;7.53;;;;;;;;;;5031979;28;20037;-66
2022/06/11 03:14:17;;;;;;;8.25;7.45;;;;;;;;;;5032232;28;20026;-66
2022/06/11 03:16:44;;;;;;;9.60;7.80;;;;;;;;;;5032180;28;20442;-66
2022/06/11 03:19:11;;;;;;;8.45;7.30;;;;;;;;;;5032165;28;20467;-66
2022/06/11 03:21:38;;;;;;;10.25;9.07;;;;;;;;;;5032209;28;20029;-67
2022/06/11 03:24:04;;;;;;;33.67;23.23;;;;;;;;;;5019830;28;20049;-67
2022/06/11 03:26:31;;;;;;;65.13;42.75;;;;;;;;;;5029945;28;20379;-67
2022/06/11 03:28:57;;;;;;;46.20;31.20;;;;;;;;;;5012160;28;20084;-67
2022/06/11 03:31:23;;;;;;;22.73;16.95;;;;;;;;;;5014245;28;20037;-66
2022/06/11 03:33:49;;;;;;;15.05;11.65;;;;;;;;;;5031535;28;20029;-66
2022/06/11 03:36:16;;;;;;;19.13;14.07;;;;;;;;;;5031726;28;20029;-67
2022/06/11 03:38:43;;;;;;;17.38;13.02;;;;;;;;;;5031766;28;20495;-67
2022/06/11 03:41:10;;;;;;;15.82;12.07;;;;;;;;;;5031775;28;20021;-66
2022/06/11 03:43:36;;;;;;;17.40;12.10;;;;;;;;;;5031673;28;20032;-67
2022/06/11 03:46:03;;;;;;;18.67;14.65;;;;;;;;;;5025608;28;20061;-66
2022/06/11 03:48:29;;;;;;;15.63;12.88;;;;;;;;;;5028690;28;20501;-66
2022/06/11 03:50:56;;;;;;;18.65;13.40;;;;;;;;;;5011801;28;20038;-66
2022/06/11 03:53:22;;;;;;;21.80;16.67;;;563.40;2432.00;;;;;;5011837;28;20021;-66
2022/06/11 03:55:48;;;;;;;11.65;8.68;;;563.30;2432.00;;;;;;5011772;28;20112;-66
2022/06/11 03:58:15;;;;;;;12.35;8.25;;;563.40;2432.00;;;;;;5015378;28;20529;-66
2022/06/11 04:03:26;;;;;;;14.40;10.40;;;563.40;2432.00;;;;;;5034357;28;20483;-67
2022/06/11 04:05:53;;;;;;;9.40;8.40;;;563.40;2432.00;;;;;;5034592;28;20148;-67
2022/06/11 04:08:22;;;;;;;14.18;10.32;;;563.40;2432.00;;;;;;5035381;28;20112;-67
2022/06/11 04:10:48;;;;;;;9.00;8.05;;;563.30;2432.00;;;;;;5034865;28;20113;-67
2022/06/11 04:13:16;;;;;;;9.73;8.73;;;563.40;2432.00;;;;;;5033930;28;20345;-67
2022/06/11 04:15:43;;;;;;;42.38;34.85;;;563.40;2432.00;;;;;;5032123;28;20021;-67
2022/06/11 04:18:47;;;;;;;31.52;25.80;;;563.30;2432.00;;;;;;5030097;28;20032;-68
2022/06/11 04:21:15;;;;;;;22.75;18.75;;;563.40;2432.00;;;;;;5024307;28;20499;-68
2022/06/11 04:23:43;;;;;;;14.63;11.27;;;563.40;2432.00;;;;;;5017805;28;20038;-68
2022/06/11 04:26:12;;;;;;;11.68;10.10;;;563.50;2432.00;;;;;;5016629;28;20041;-68
2022/06/11 04:28:39;;;;;;;14.05;11.00;;;563.40;2432.00;;;;;;5016091;28;20025;-67
2022/06/11 04:31:07;;;;;;;10.75;9.48;;;563.50;2432.00;;;;;;5017169;28;20037;-66
2022/06/11 04:33:34;;;;;;;11.70;10.32;;;563.50;2432.00;;;;;;5016176;28;20123;-67
2022/06/11 04:36:00;;;;;;;19.77;13.75;;;563.50;2432.00;;;;;;5015840;28;20033;-66
2022/06/11 04:38:26;;;;;;;25.52;20.48;;;563.50;2432.00;;;;;;5025971;28;20103;-66
2022/06/11 04:40:52;;;;;;;24.65;18.25;;;;;;;;;;5034203;28;20064;-67
2022/06/11 04:43:18;;;;;;;25.35;21.60;;;;;;;;;;5034639;28;20025;-66
2022/06/11 04:45:44;;;;;;;19.55;12.95;;;;;;;;;;5017671;28;20391;-67
2022/06/11 04:48:11;;;;;;;21.75;17.25;;;;;;;;;;5014649;28;20025;-67
2022/06/11 04:50:37;;;;;;;16.90;13.98;;;;;;;;;;5014305;28;20407;-68
2022/06/11 04:53:03;;;;;;;23.80;14.88;;;;;;;;;;5014371;28;20022;-68
2022/06/11 04:55:30;;;;;;;17.63;14.63;;;;;;;;;;5014013;28;20365;-67
2022/06/11 04:57:56;;;;;;;12.38;10.60;;;;;;;;;;5014410;28;20544;-68
2022/06/11 05:00:23;;;;;;;25.02;20.80;;;;;;;;;;5014325;28;20113;-68
2022/06/11 05:02:50;;;;;;;21.27;17.60;;;;;;;;;;5028011;28;20030;-68
2022/06/11 05:05:17;;;;;;;35.53;30.20;;;;;;;;;;5033639;28;20053;-67
2022/06/11 05:07:43;;;;;;;22.50;17.48;;;;;;;;;;5033899;28;20040;-68
2022/06/11 05:10:11;;;;;;;13.25;11.15;;;;;;;;;;5033718;28;20021;-67
2022/06/11 05:12:37;;;;;;;14.20;11.18;;;;;;;;;;5033581;28;20056;-68
2022/06/11 05:15:03;;;;;;;14.10;12.30;;;;;;;;;;5033727;28;20030;-68
2022/06/11 05:17:29;;;;;;;22.95;17.30;;;;;;;;;;5033534;28;20026;-67
2022/06/11 05:19:55;;;;;;;13.43;11.15;;;;;;;;;;5033387;28;20104;-67
2022/06/11 05:22:22;;;;;;;13.90;9.30;;;;;;;;;;5033880;28;20108;-67
2022/06/11 05:24:48;;;;;;;9.90;8.95;;;;;;;;;;5033227;28;20132;-68
2022/06/11 05:27:20;;;;;;;12.18;10.98;;;;;;;;;;5033610;28;20018;-68
2022/06/11 05:29:48;;;;;;;16.35;9.52;;;;;;;;;;5033157;28;20149;-67
2022/06/11 05:32:14;;;;;;;13.43;10.20;;;;;;;;;;5032979;28;20045;-68
2022/06/11 05:34:41;;;;;;;10.88;9.77;;;;;;;;;;5032889;28;20116;-67
2022/06/11 05:37:07;;;;;;;12.05;9.57;;;;;;;;;;5033328;28;20040;-68
2022/06/11 05:39:33;;;;;;;9.93;8.68;;;;;;;;;;5032949;28;20021;-68
2022/06/11 05:41:59;;;;;;;10.02;8.48;;;;;;;;;;5033014;28;20060;-68
2022/06/11 05:44:25;;;;;;;9.60;8.65;;;;;;;;;;5033281;28;20463;-68
2022/06/11 05:46:53;;;;;;;10.75;9.00;;;;;;;;;;5033230;28;20120;-67
2022/06/11 05:49:22;;;;;;;10.85;8.55;;;;;;;;;;5046627;28;20395;-68
2022/06/11 05:51:51;;;;;;;10.68;8.80;;;;;;;;;;5046151;28;20075;-70
2022/06/11 05:54:20;;;;;;;12.00;9.10;;;;;;;;;;5053275;28;20489;-68
2022/06/11 05:56:46;;;;;;;11.77;9.70;;;;;;;;;;5049523;28;20021;-68
2022/06/11 05:59:16;;;;;;;14.27;10.80;;;;;;;;;;5033120;28;20475;-69
2022/06/11 06:01:43;;;;;;;12.25;9.52;;;;;;;;;;5019535;28;20025;-67
2022/06/11 06:04:09;;;;;;;18.73;11.75;;;;;;;;;;5032990;28;20025;-67
2022/06/11 06:06:35;;;;;;;53.03;30.17;;;;;;;;;;5033130;28;20029;-68
2022/06/11 06:09:02;;;;;;;25.33;16.60;;;;;;;;;;5032997;28;20033;-68
2022/06/11 06:11:29;;;;;;;23.38;17.27;;;;;;;;;;5032811;28;20090;-68
2022/06/11 06:13:56;;;;;;;16.58;11.38;;;;;;;;;;5050787;28;20485;-68
2022/06/11 06:16:24;;;;;;;15.45;12.82;;;;;;;;;;5052865;28;20371;-68
2022/06/11 06:18:50;;;;;;;14.55;11.13;;;;;;;;;;5034158;28;20071;-68
2022/06/11 06:21:17;;;;;;;21.60;16.27;;;;;;;;;;5052797;28;20028;-69
2022/06/11 06:23:44;;;;;;;31.60;21.08;;;;;;;;;;5052379;28;20025;-68
2022/06/11 06:26:10;;;;;;;50.70;33.55;;;;;;;;;;5052420;28;20047;-66
2022/06/11 06:28:36;;;;;;;33.97;24.08;;;;;;;;;;5052570;28;20387;-67
2022/06/11 06:31:04;;;;;;;46.88;31.88;;;;;;;;;;5052544;28;20064;-67
2022/06/11 06:33:30;;;;;;;24.15;15.13;;;;;;;;;;5033324;28;20549;-66
2022/06/11 06:35:57;;;;;;;13.65;9.38;;;;;;;;;;5032311;28;20467;-68
2022/06/11 06:38:23;;;;;;;19.20;13.57;;;;;;;;;;5032373;28;20041;-68
2022/06/11 06:40:49;;;;;;;21.35;13.95;;;;;;;;;;5032843;28;20108;-68
2022/06/11 06:43:16;;;;;;;19.80;11.27;;;;;;;;;;5032868;28;20900;-68
2022/06/11 06:45:42;;;;;;;13.35;10.80;;;;;;;;;;5032458;28;20116;-68
2022/06/11 06:48:08;;;;;;;13.32;9.60;;;;;;;;;;5032606;28;20022;-67
2022/06/11 06:50:34;;;;;;;10.77;9.30;;;;;;;;;;5032545;28;20480;-69
2022/06/11 06:53:00;;;;;;;13.82;10.20;;;;;;;;;;5032569;28;20034;-68
2022/06/11 06:55:26;;;;;;;15.32;9.55;;;;;;;;;;5032447;28;20124;-67
2022/06/11 06:57:52;;;;;;;43.85;30.83;;;;;;;;;;5032180;28;20014;-69
2022/06/11 07:00:18;;;;;;;18.75;14.20;;;;;;;;;;5032643;28;20033;-67
2022/06/11 07:02:45;;;;;;;20.30;12.20;;;;;;;;;;5032224;28;20155;-67
2022/06/11 07:05:12;;;;;;;33.28;24.00;;;;;;;;;;5032359;28;20032;-67
2022/06/11 07:07:39;;;;;;;39.88;27.65;;;;;;;;;;5032396;28;20120;-68
2022/06/11 07:10:06;;;;;;;13.73;10.52;;;;;;;;;;5032540;28;20111;-67
2022/06/11 07:12:32;;;;;;;79.13;50.95;;;;;;;;;;5030845;28;20033;-68
2022/06/11 07:14:59;;;;;;;21.75;15.48;;;;;;;;;;5032173;28;20495;-67
2022/06/11 07:17:26;;;;;;;20.02;15.10;;;;;;;;;;5032599;28;20037;-67
2022/06/11 07:19:58;;;;;;;21.00;14.95;;;;;;;;;;5032180;28;20499;-66
2022/06/11 07:22:26;;;;;;;25.27;16.45;;;;;;;;;;5032143;28;20048;-67
2022/06/11 07:24:52;;;;;;;43.17;27.50;;;;;;;;;;5031986;28;20100;-67
2022/06/11 07:27:23;;;;;;;19.75;15.93;;;;;;;;;;5032117;28;20025;-66
2022/06/11 07:29:51;;;;;;;30.73;19.97;;;;;;;;;;5032081;28;20468;-66
2022/06/11 07:32:19;;;;;;;38.97;25.80;;;;;;;;;;5035731;28;20032;-68
2022/06/11 07:34:46;;;;;;;31.77;18.83;;;;;;;;;;5035767;28;20032;-66
2022/06/11 07:37:12;;;;;;;55.65;35.70;;;;;;;;;;5035699;28;20371;-67
2022/06/11 07:39:39;;;;;;;19.52;14.05;;;;;;;;;;5036190;28;20030;-65
2022/06/11 07:42:05;;;;;;;13.38;10.35;;;;;;;;;;5033493;28;20411;-67
2022/06/11 07:44:31;;;;;;;41.00;27.23;;;;;;;;;;5015986;28;20032;-66
2022/06/11 07:46:58;;;;;;;27.95;20.08;;;;;;;;;;5016037;28;20026;-66
2022/06/11 07:49:24;;;;;;;25.95;18.25;;;;;;;;;;5015794;28;20392;-65
2022/06/11 07:51:51;;;;;;;24.33;17.38;;;;;;;;;;5015772;28;20116;-65
2022/06/11 07:54:17;;;;;;;15.57;10.93;;;;;;;;;;5015854;28;20022;-66
2022/06/11 07:56:43;;;;;;;26.17;16.00;;;;;;;;;;5015679;28;20034;-66
2022/06/11 07:59:10;;;;;;;22.90;16.17;;;;;;;;;;5015548;28;20033;-66
2022/06/11 08:01:36;;;;;;;29.02;18.05;;;;;;;;;;5018339;28;20112;-66
2022/06/11 08:04:02;;;;;;;14.88;12.05;;;;;;;;;;5035110;28;20475;-67
2022/06/11 08:06:28;;;;;;;28.80;22.38;;;;;;;;;;5035268;28;20483;-66
2022/06/11 08:08:54;;;;;;;17.67;15.05;;;;;;;;;;5035523;28;20040;-67
2022/06/11 08:11:20;;;;;;;45.08;31.00;;;;;;;;;;5035097;28;20117;-67
2022/06/11 08:13:47;;;;;;;31.33;24.58;;;;;;;;;;5034849;28;20021;-67
2022/06/11 08:16:13;;;;;;;22.45;15.00;;;;;;;;;;5034969;28;20029;-68
2022/06/11 08:18:39;;;;;;;18.20;14.40;;;;;;;;;;5034863;28;20043;-66
2022/06/11 08:21:06;;;;;;;34.92;22.67;;;;;;;;;;5035042;28;20029;-66
2022/06/11 08:23:32;;;;;;;27.52;21.33;;;;;;;;;;5035507;28;20056;-66
2022/06/11 08:25:58;;;;;;;19.58;16.60;;;;;;;;;;5034414;28;20499;-66
2022/06/11 08:28:24;;;;;;;36.65;29.58;;;;;;;;;;5031349;28;20037;-67
2022/06/11 08:30:51;;;;;;;31.42;24.52;;;;;;;;;;5025900;28;20395;-67
2022/06/11 08:33:17;;;;;;;18.88;13.60;;;;;;;;;;5032181;28;20034;-66
2022/06/11 08:35:44;;;;;;;14.55;10.35;;;;;;;;;;5032144;28;20033;-66
2022/06/11 08:38:10;;;;;;;26.35;15.07;;;;;;;;;;5033978;28;20116;-65
2022/06/11 08:40:40;;;;;;;32.10;25.83;;;;;;;;;;5034965;28;20104;-68
2022/06/11 08:43:16;;;;;;;83.22;70.70;;;;;;;;;;5015541;28;20029;-65
2022/06/11 08:45:44;;;;;;;40.30;27.00;;;;;;;;;;5034315;28;20128;-66
2022/06/11 08:48:14;;;;;;;32.28;26.25;;;;;;;;;;5034280;28;20110;-66
2022/06/11 08:50:43;;;;;;;27.20;23.45;;;;;;;;;;5015785;28;20045;-67
2022/06/11 08:53:09;;;;;;;33.95;25.85;;;;;;;;;;5033903;28;20514;-67
2022/06/11 08:55:37;;;;;;;44.28;33.83;;;;;;;;;;5033667;28;20040;-66
2022/06/11 08:58:26;;;;;;;32.70;26.55;;;;;;;;;;5039555;28;20372;-67
2022/06/11 09:00:57;;;;;;;14.32;12.85;;;;;;;;;;5021819;28;20037;-66
2022/06/11 09:03:23;;;;;;;29.95;22.02;;;;;;;;;;5029365;28;20388;-67
2022/06/11 09:06:08;;;;;;;24.15;21.30;;;;;;;;;;5033833;28;20044;-67
2022/06/11 09:08:42;;;;;;;27.20;22.55;;;;;;;;;;5034158;28;20116;-67
2022/06/11 09:11:11;;;;;;;17.08;13.18;;;;;;;;;;5033072;28;20033;-67
2022/06/11 09:13:41;;;;;;;35.75;29.35;;;;;;;;;;5033641;28;20028;-68
2022/06/11 09:16:15;;;;;;;21.52;18.33;;;;;;;;;;5015601;28;20076;-69
2022/06/11 09:18:59;;;;;;;32.85;25.75;;;;;;;;;;5033635;28;20026;-68
2022/06/11 09:21:28;;;;;;;47.60;41.17;;;;;;;;;;5033632;28;20033;-69
2022/06/11 09:24:03;;;;;;;90.88;69.75;;;;;;;;;;5030861;28;20057;-65
2022/06/11 09:26:39;;;;;;;22.83;17.55;;;;;;;;;;5017057;28;20033;-69
2022/06/11 09:29:23;;;;;;;45.15;39.38;;;;;;;;;;5023272;28;20026;-66
2022/06/11 09:31:49;;;;;;;42.47;33.20;;;;;;;;;;5034298;28;20034;-68
2022/06/11 09:34:27;;;;;;;39.33;31.88;;;;;;;;;;5016610;28;20075;-68
2022/06/11 09:37:12;;;;;;;35.95;26.10;;;;;;;;;;5013822;28;20370;-68
2022/06/11 09:39:38;;;;;;;32.72;26.58;;;;;;;;;;5014182;28;20036;-67
2022/06/11 09:42:04;;;;;;;41.92;34.95;;;;;;;;;;5013990;28;20021;-68
2022/06/11 09:45:02;;;;;;;34.17;28.63;;;;;;;;;;5017192;28;20108;-66
2022/06/11 09:47:33;;;;;;;25.05;18.60;;;;;;;;;;4953264;29;20043;-69
2022/06/11 09:50:05;;;;;;;35.00;30.83;;;;;;;;;;4952060;29;20070;-67
2022/06/11 09:52:36;;;;;;;14.10;12.55;;;;;;;;;;4952463;28;20035;-68
2022/06/11 09:55:05;;;;;;;14.98;12.25;;;;;;;;;;4952460;28;20028;-68
2022/06/11 09:57:44;;;;;;;28.42;24.80;;;;;;;;;;4953220;29;20087;-68
2022/06/11 10:00:13;;;;;;;16.98;15.15;;;;;;;;;;4952390;28;20046;-67
2022/06/11 10:02:55;;;;;;;35.17;28.42;;;;;;;;;;4945966;29;20078;-68
2022/06/11 10:05:25;;;;;;;18.55;11.88;;;;;;;;;;4939571;29;20031;-68
2022/06/11 10:07:54;;;;;;;20.15;13.35;;;;;;;;;;4952442;29;20118;-65
2022/06/11 10:10:23;;;;;;;17.27;13.45;;;;;;;;;;4952205;29;20043;-67
2022/06/11 10:13:01;;;;;;;18.80;16.02;;;;;;;;;;4953025;29;20039;-67
2022/06/11 10:15:31;;;;;;;16.20;12.35;;;;;;;;;;4952906;29;20589;-68
2022/06/11 10:17:57;;;;;;;21.07;14.87;;;;;;;;;;4952417;28;20418;-68
2022/06/11 10:20:26;;;;;;;24.80;17.92;;;;;;;;;;4952541;29;20032;-69
2022/06/11 10:23:11;;;;;;;12.52;11.23;;;;;;;;;;5003886;28;20037;-68
2022/06/11 10:25:52;;;;;;;19.27;16.27;;;;;;;;;;5053006;28;20057;-69
2022/06/11 10:28:18;;;;;;;;;;;;;;;;;;5053265;28;20052;-69
2022/06/11 10:30:54;;;;;;;23.00;14.00;;;;;;;;;;5053104;28;19970;-69
2022/06/11 10:33:23;;;;;;;16.60;14.90;;;;;;;;;;5052859;28;20035;-69
2022/06/11 10:35:56;;;;;;;17.92;15.95;;;;;;;;;;5052689;28;20029;-69
2022/06/11 10:38:37;;;;;;;13.18;10.38;;;;;;;;;;5052600;28;20029;-69
2022/06/11 10:41:03;;;;;;;;;;;;;;;;;;5053063;28;20025;-69
2022/06/11 10:43:39;;;;;;;12.57;11.18;;;;;;;;;;5052552;28;20362;-69
2022/06/11 10:46:05;;;;;;;13.57;10.52;;;;;;;;;;5052687;28;20017;-68
2022/06/11 10:48:34;;;;;;;20.70;14.15;;;;;;;;;;5052799;28;20024;-69
2022/06/11 10:51:01;;;;;;;22.77;17.60;;;;;;;;;;5052428;28;20040;-69
2022/06/11 10:53:39;;;;;;;16.77;13.13;;;;;;;;;;5052697;28;20025;-70
2022/06/11 10:56:20;;;;;;;14.68;10.85;;;;;;;;;;5052488;28;20143;-69
2022/06/11 10:58:59;;;;;;;18.52;13.48;;;;;;;;;;5052289;28;20052;-69
2022/06/11 11:01:37;;;;;;;16.38;12.65;;;;;;;;;;5052585;28;20057;-70
2022/06/11 11:04:06;;;;;;;12.60;9.77;;;;;;;;;;5052443;28;20028;-69
2022/06/11 11:06:34;;;;;;;14.38;10.95;;;;;;;;;;5055486;28;20475;-70
2022/06/11 11:09:06;;;;;;;13.80;9.60;;;;;;;;;;5056479;28;20030;-69
2022/06/11 11:11:40;;;;;;;19.83;11.02;;;;;;;;;;5056376;28;20043;-69
2022/06/11 11:14:08;;;;;;;15.50;10.60;;;;;;;;;;5056622;28;20033;-69
2022/06/11 11:16:39;;;;;;;20.85;12.25;;;;;;;;;;5056468;28;20025;-69
2022/06/11 11:19:19;;;;;;;11.25;9.73;;;;;;;;;;5056582;28;20033;-69
2022/06/11 11:21:56;;;;;;;12.20;9.82;;;;;;;;;;5056318;28;20459;-69
2022/06/11 11:24:28;;;;;;;17.10;10.32;;;;;;;;;;5056076;28;20072;-67
2022/06/11 11:27:00;;;;;;;17.67;10.93;;;;;;;;;;5056215;28;20104;-69
2022/06/11 11:29:32;;;;;;;13.35;10.07;;;;;;;;;;5056093;28;20032;-69
2022/06/11 11:32:02;;;;;;;12.70;9.45;;;;;;;;;;5055965;28;20036;-70
2022/06/11 11:34:30;;;;;;;18.07;13.90;;;;;;;;;;5056060;28;20040;-69
2022/06/11 11:37:05;;;;;;;18.40;11.23;;;;;;;;;;5056230;28;20282;-70
2022/06/11 11:39:32;;;;;;;17.58;9.30;;;;;;;;;;5055996;28;20479;-70
2022/06/11 11:42:07;;;;;;;10.93;9.75;;;;;;;;;;5055933;28;20105;-69
2022/06/11 11:44:46;;;;;;;12.75;10.50;;;;;;;;;;5055836;28;20025;-69
2022/06/11 11:47:16;;;;;;;10.45;8.98;;;;;;;;;;5055632;28;20047;-69
2022/06/11 11:49:47;;;;;;;11.05;9.95;;;;;;;;;;5055721;28;20029;-70
2022/06/11 11:52:16;;;;;;;13.88;9.60;;;;;;;;;;5055618;28;20080;-69
2022/06/11 11:54:57;;;;;;;14.23;10.98;;;;;;;;;;5055973;28;20382;-70
2022/06/11 11:57:24;;;;;;;10.68;9.57;;;;;;;;;;5055435;28;20021;-70
2022/06/11 11:59:53;;;;;;;12.50;10.20;;;;;;;;;;5055208;28;20036;-69
2022/06/11 12:02:42;;;;;;;14.98;10.60;;;;;;;;;;5055748;28;20036;-69
2022/06/11 12:05:16;;;;;;;14.60;9.60;;;;;;;;;;5055609;28;20087;-70
2022/06/11 12:07:44;;;;;;;15.57;9.73;;;;;;;;;;5055270;28;20443;-70
2022/06/11 12:10:30;;;;;;;12.85;10.15;;;;;;;;;;5055471;28;20025;-69
2022/06/11 12:12:56;;;;;;;10.93;9.57;;;;;;;;;;5055556;28;20056;-69
2022/06/11 12:15:24;;;;;;;18.35;9.82;;;;;;;;;;5055427;28;20447;-69
2022/06/11 12:17:53;;;;;;;13.85;10.18;;;;;;;;;;5054106;28;20025;-69
2022/06/11 12:20:26;;;;;;;14.30;11.38;;;;;;;;;;5055479;28;20025;-69
2022/06/11 12:22:55;;;;;;;12.32;11.07;;;;;;;;;;5054916;28;20020;-69
2022/06/11 12:25:34;;;;;;;12.85;10.48;;;;;;;;;;5054982;28;20449;-70
2022/06/11 12:28:01;;;;;;;11.48;10.27;;;;;;;;;;5055076;28;20032;-68
2022/06/11 12:30:28;;;;;;;11.70;9.68;;;;;;;;;;5054824;28;20116;-70
2022/06/11 12:32:54;;;;;;;11.23;9.60;;;;;;;;;;5054986;28;20024;-70
2022/06/11 12:35:40;;;;;;;13.75;12.35;;;;;;;;;;5055062;28;20032;-70
2022/06/11 12:38:16;;;;;;;13.88;10.32;;;;;;;;;;5055088;28;20146;-70
2022/06/11 12:41:00;;;;;;;12.73;11.32;;;;;;;;;;5054870;28;20024;-70
2022/06/11 12:43:46;;;;;;;11.52;10.25;;;;;;;;;;5055067;28;20025;-70
2022/06/11 12:46:24;;;;;;;12.77;10.85;;;;;;;;;;5054677;28;20017;-70
2022/06/11 12:48:54;;;;;;;11.98;10.75;;;;;;;;;;5036911;28;20364;-70
2022/06/11 12:51:32;;;;;;;15.43;13.48;;;691.30;2432.00;;;;;;5054552;28;20039;-70
2022/06/11 12:54:11;;;;;;;13.05;11.73;;;691.20;2432.00;;;;;;5054810;28;20459;-70
2022/06/11 12:57:09;;;;;;;11.38;10.02;;;691.40;2432.00;;;;;;5054506;28;20561;-70
2022/06/11 12:59:53;;;;;;;11.65;9.35;;;;;;;;;;5054731;28;20033;-70
2022/06/11 13:02:37;;;;;;;14.20;9.52;;;;;;;;;;5054767;28;20129;-69
2022/06/11 13:05:12;;;;;;;10.52;9.43;;;;;;;;;;5054588;28;20028;-69
2022/06/11 13:07:44;;;;;;;10.20;8.88;;;;;;;;;;5054455;28;20108;-69
2022/06/11 13:10:29;;;;;;;9.98;8.95;;;691.70;2432.00;;;;;;5054167;28;20028;-68
2022/06/11 13:13:05;;;;;;;9.80;8.77;;;691.70;2432.00;;;;;;5054204;28;20031;-70
2022/06/11 13:15:43;;;;;;;10.77;9.07;;;691.50;2432.00;;;;;;5054178;28;20092;-71
2022/06/11 13:18:30;;;;;;;9.55;8.55;;;691.40;2432.00;;;;;;5054289;28;20048;-68
2022/06/11 13:21:04;;;;;;;11.50;8.77;;;691.20;2432.00;;;;;;5054397;28;20464;-69
2022/06/11 13:23:38;;;;;;;10.43;9.43;;;666.50;2432.00;;;;;;5054111;28;20033;-69
2022/06/11 13:26:07;;;;;;;11.63;9.65;;;666.40;2432.00;;;;;;5053884;28;20037;-68
2022/06/11 13:28:36;;;;;;;12.48;8.43;;;666.40;2432.00;;;;;;5053898;28;20540;-69
2022/06/11 13:31:52;;;;;;;13.63;9.30;;;691.20;2432.00;;;;;;5053672;28;20443;-68
2022/06/11 13:34:36;;;;;;;9.52;8.20;;;691.20;2432.00;;;;;;4953176;28;20417;-68
2022/06/11 13:37:32;;;;;;;12.95;8.52;;;691.70;2432.00;;;;;;4953419;29;20106;-69
2022/06/11 13:40:14;;;;;;;12.23;8.15;;;691.60;2432.00;;;;;;4953480;29;20446;-69
2022/06/11 13:43:01;;;;;;;12.45;8.60;;;691.50;2432.00;;;;;;4953579;28;20026;-69
2022/06/11 13:45:55;;;;;;;11.95;7.75;;;691.70;2432.00;;;;;;4953602;29;20556;-69
2022/06/11 13:48:31;;;;;;;8.52;7.57;;;;;;;;;;4953476;29;20547;-69
2022/06/11 13:51:09;;;;;;;8.75;7.25;;;;;;;;;;4953211;29;20035;-69
2022/06/11 13:56:22;;;;;;;14.45;8.50;;;691.70;2432.00;;;;;;4953656;28;20046;-69
2022/06/11 13:59:18;;;;;;;9.63;7.50;;;691.70;2432.00;;;;;;4953294;28;20505;-70
2022/06/11 14:02:07;;;;;;;12.30;7.90;;;691.70;2432.00;;;;;;4953213;29;20065;-69
2022/06/11 14:04:45;;;;;;;13.38;9.18;;;691.70;2432.00;;;;;;4953057;28;20126;-68
2022/06/11 14:07:15;;;;;;;9.98;7.75;;;691.70;2432.00;;;;;;4953087;29;20039;-69
2022/06/11 14:13:04;;;;;;;7.95;7.18;;;691.90;2432.00;;;;;;5053155;28;20103;-67
2022/06/11 14:15:36;;;;;;;9.45;8.10;;;691.90;2432.00;;;;;;5049964;28;20025;-67
2022/06/11 14:18:05;;;;;;;10.70;7.20;;;691.90;2432.00;;;;;;5052850;28;20031;-69
2022/06/11 14:20:31;;;;;;;9.23;7.82;;;691.90;2432.00;;;;;;5052782;28;20033;-68
2022/06/11 14:23:11;;;;;;;9.02;6.50;;;691.90;2432.00;;;;;;5052964;28;20349;-69
2022/06/11 14:25:44;;;;;;;10.55;8.70;;;691.90;2432.00;;;;;;5052768;28;20041;-68
2022/06/11 14:28:16;;;;;;;8.85;7.47;;;691.90;2432.00;;;;;;5053445;28;20040;-69
2022/06/11 14:30:45;;;;;;;23.58;9.27;;;691.70;2432.00;;;;;;5052755;28;20471;-69